Time;durP1;ratioP1;P1;durP2;ratioP2;P2;SDS_P1;SDS_P2;PMS_P1;PMS_P2;Temp;Humidity;BMP_temperature;BMP_pressure;BME280_temperature;BME280_humidity;BME280_pressure;Samples;Min_cycle;Max_cycle;Signal;HPM_P1;HPM_P2
2022/12/15 00:38:43;;;;;;;6.07;5.45;;;9.20;99.90;9.70;98133.00;;;;340045;28;91025;-90
2022/12/15 00:38:55;;;;;;;7.75;5.90;;;9.20;99.90;9.60;98145.00;;;;339150;28;84059;-90
2022/12/15 00:39:14;;;;;;;7.50;6.05;;;9.30;99.90;9.60;98136.00;;;;338890;28;91071;-90
2022/12/15 00:39:26;;;;;;;9.07;6.60;;;9.30;99.90;9.60;98139.00;;;;342007;28;83349;-91
2022/12/15 00:39:39;;;;;;;9.70;6.72;;;9.30;99.90;9.60;98141.00;;;;341557;28;89295;-91
2022/12/15 00:39:58;;;;;;;9.95;6.35;;;9.30;99.90;9.60;98147.00;;;;339319;28;82402;-91
2022/12/15 00:40:11;;;;;;;9.75;6.60;;;9.30;99.90;9.60;98147.00;;;;339802;28;91150;-92
2022/12/15 00:40:23;;;;;;;12.40;7.07;;;9.30;99.90;9.70;98137.00;;;;335371;29;85092;-91
2022/12/15 00:40:34;;;;;;;14.40;7.63;;;9.30;99.90;9.60;98137.00;;;;341137;28;90527;-90
2022/12/15 00:40:46;;;;;;;14.07;7.50;;;9.30;99.90;9.60;98141.00;;;;339257;28;82708;-91
2022/12/15 00:41:00;;;;;;;13.00;7.35;;;9.30;99.90;9.60;98142.00;;;;341346;28;87423;-91
2022/12/15 00:41:14;;;;;;;10.40;7.22;;;9.30;99.90;9.60;98141.00;;;;339546;28;83469;-91
2022/12/15 00:41:26;;;;;;;11.23;6.97;;;9.30;99.90;9.60;98146.00;;;;338906;28;91686;-90
2022/12/15 00:41:38;;;;;;;10.77;6.50;;;9.30;99.90;9.50;98144.00;;;;338017;28;84466;-91
2022/12/15 00:41:50;;;;;;;8.88;5.90;;;9.30;99.90;9.50;98145.00;;;;342970;28;91782;-90
2022/12/15 00:42:02;;;;;;;6.18;5.30;;;9.30;99.90;9.60;98141.00;;;;341998;28;82361;-91
2022/12/15 00:42:14;;;;;;;6.47;5.30;;;9.30;99.90;9.60;98149.00;;;;339033;28;89527;-91
2022/12/15 00:42:27;;;;;;;7.32;5.53;;;9.30;99.90;9.60;98132.00;;;;337895;28;83826;-91
2022/12/15 00:42:40;;;;;;;6.10;5.03;;;9.30;99.90;9.50;98144.00;;;;339946;28;90921;-91
2022/12/15 00:42:52;;;;;;;6.00;5.18;;;9.30;99.90;9.50;98129.00;;;;339159;28;82433;-91
2022/12/15 00:43:04;;;;;;;6.40;5.60;;;9.30;99.90;9.60;98129.00;;;;342939;28;88784;-92
2022/12/15 00:43:15;;;;;;;6.35;5.65;;;9.30;99.90;9.60;98138.00;;;;339492;28;84660;-91
2022/12/15 00:43:31;;;;;;;5.97;5.38;;;9.30;99.90;9.60;98146.00;;;;340496;28;89637;-91
2022/12/15 00:43:44;;;;;;;5.68;5.07;;;9.30;99.90;9.60;98142.00;;;;336229;28;83580;-91
2022/12/15 00:43:56;;;;;;;6.10;5.13;;;9.30;99.90;9.50;98139.00;;;;340175;28;90200;-91
2022/12/15 00:44:08;;;;;;;6.50;5.50;;;9.30;99.90;9.60;98136.00;;;;340735;28;83367;-91
2022/12/15 00:44:22;;;;;;;5.68;5.07;;;9.30;99.90;9.50;98142.00;;;;339123;28;89904;-91
2022/12/15 00:44:34;;;;;;;5.35;4.85;;;9.30;99.90;9.50;98138.00;;;;339133;28;83505;-91
2022/12/15 00:44:45;;;;;;;5.47;4.93;;;9.30;99.90;9.50;98134.00;;;;337630;28;89892;-91
2022/12/15 00:44:57;;;;;;;6.30;5.32;;;9.30;99.90;9.50;98139.00;;;;339702;28;83359;-90
2022/12/15 00:45:09;;;;;;;6.40;5.20;;;9.30;99.90;9.70;98145.00;;;;339065;28;90174;-91
2022/12/15 00:46:53;;;;;;;5.47;4.85;;;9.30;99.90;9.50;98135.00;;;;339579;28;83364;-90
2022/12/15 00:46:55;;;;;;;6.20;5.15;;;9.30;99.90;9.60;98143.00;;;;339694;28;91278;-91
2022/12/15 00:47:07;;;;;;;6.07;5.40;;;9.30;99.90;9.50;98135.00;;;;338787;28;82705;-91
2022/12/15 00:47:19;;;;;;;6.28;5.25;;;9.30;99.90;9.60;98136.00;;;;338589;28;92395;-90
2022/12/15 00:47:31;;;;;;;6.10;4.95;;;9.30;99.90;9.70;98137.00;;;;338912;28;84287;-91
2022/12/15 00:47:43;;;;;;;5.53;4.95;;;9.30;99.90;9.80;98129.00;;;;338525;28;90386;-91
2022/12/15 00:47:55;;;;;;;5.75;5.25;;;9.40;99.90;9.60;98139.00;;;;340459;28;84051;-91
2022/12/15 00:48:07;;;;;;;5.88;5.28;;;9.40;99.90;9.70;98144.00;;;;339798;28;91400;-91
2022/12/15 00:48:19;;;;;;;5.70;4.93;;;9.30;99.90;9.80;98140.00;;;;340185;28;83756;-91
2022/12/15 00:48:30;;;;;;;5.57;4.78;;;9.40;99.90;9.80;98140.00;;;;337325;28;91799;-91
2022/12/15 00:48:42;;;;;;;5.43;4.88;;;9.40;99.90;9.60;98148.00;;;;340309;28;84122;-91
2022/12/15 00:48:54;;;;;;;5.82;5.22;;;9.40;99.90;9.50;98140.00;;;;333384;29;91039;-90
2022/12/15 00:50:50;;;;;;;5.88;5.28;;;9.40;99.90;9.40;98138.00;;;;337826;28;83272;-91
2022/12/15 00:50:51;;;;;;;5.45;4.95;;;9.40;99.90;9.50;98152.00;;;;337643;28;90010;-91
2022/12/15 00:51:03;;;;;;;5.82;5.32;;;9.30;99.90;9.50;98152.00;;;;342178;28;83272;-92
2022/12/15 00:51:15;;;;;;;5.95;5.35;;;9.30;99.90;9.50;98146.00;;;;336491;28;88356;-91
2022/12/15 01:20:19;;;;;;;8.00;6.47;;;9.10;99.90;9.30;98135.00;;;;341379;28;84224;-91
2022/12/15 01:20:33;;;;;;;7.88;6.22;;;9.10;99.90;9.40;98136.00;;;;339955;28;88983;-91
2022/12/15 01:20:56;;;;;;;6.45;5.80;;;9.10;99.90;9.40;98138.00;;;;338948;28;82908;-91
2022/12/15 01:21:10;;;;;;;6.45;5.85;;;9.10;99.90;9.30;98126.00;;;;339936;28;88345;-90
2022/12/15 01:21:22;;;;;;;6.07;5.47;;;9.10;99.90;9.20;98131.00;;;;337449;28;83201;-91
2022/12/15 01:21:36;;;;;;;5.63;5.13;;;9.10;99.90;9.30;98133.00;;;;337226;28;91244;-91
2022/12/15 01:21:49;;;;;;;5.72;5.22;;;9.00;99.90;9.30;98135.00;;;;337317;28;83320;-91
2022/12/15 01:22:01;;;;;;;6.32;5.70;;;9.00;99.90;9.30;98131.00;;;;337217;28;90824;-91
2022/12/15 01:22:15;;;;;;;7.10;6.40;;;9.10;99.90;9.30;98130.00;;;;337827;28;83486;-91
2022/12/15 01:22:27;;;;;;;6.97;6.28;;;9.00;99.90;9.40;98132.00;;;;337060;28;90339;-91
2022/12/15 01:22:39;;;;;;;6.25;5.57;;;9.10;99.90;9.30;98133.00;;;;339062;28;83446;-91
2022/12/15 01:22:53;;;;;;;6.38;5.75;;;9.10;99.90;9.30;98134.00;;;;337275;28;87908;-90
2022/12/15 01:23:05;;;;;;;5.80;5.30;;;9.10;99.90;9.20;98125.00;;;;337787;28;82141;-91
2022/12/15 01:23:18;;;;;;;5.72;5.22;;;9.00;99.90;9.20;98129.00;;;;338428;28;89433;-89
2022/12/15 01:23:31;;;;;;;6.18;5.65;;;9.00;99.90;9.20;98126.00;;;;338702;28;83880;-91
2022/12/15 01:23:43;;;;;;;6.55;5.95;;;9.00;99.90;9.20;98134.00;;;;339689;28;93109;-91
2022/12/15 01:23:55;;;;;;;6.47;5.88;;;9.00;99.90;9.20;98130.00;;;;337668;28;83654;-91
2022/12/15 01:24:08;;;;;;;6.32;5.70;;;9.00;99.90;9.30;98123.00;;;;336043;28;89753;-91
2022/12/15 01:24:21;;;;;;;6.50;5.90;;;9.00;99.90;9.20;98130.00;;;;339022;28;82644;-91
2022/12/15 01:24:33;;;;;;;6.47;5.88;;;9.00;99.90;9.20;98131.00;;;;337357;28;89994;-91
2022/12/15 01:24:45;;;;;;;6.78;6.18;;;9.00;99.90;9.20;98126.00;;;;340083;28;83998;-91
2022/12/15 01:24:57;;;;;;;7.00;6.38;;;9.00;99.90;9.20;98134.00;;;;339659;28;91505;-91
2022/12/15 01:25:11;;;;;;;7.05;6.30;;;9.00;99.90;9.30;98123.00;;;;336456;28;83387;-91
2022/12/15 01:25:24;;;;;;;7.22;6.13;;;9.00;99.90;9.30;98130.00;;;;337318;28;88495;-91
2022/12/15 01:25:38;;;;;;;6.90;6.10;;;9.00;99.90;9.40;98139.00;;;;336338;28;84230;-91
2022/12/15 01:25:51;;;;;;;7.22;6.47;;;9.00;99.90;9.30;98129.00;;;;337240;28;89443;-91
2022/12/15 01:26:04;;;;;;;6.60;6.00;;;9.00;99.90;9.30;98128.00;;;;340214;28;84872;-91
2022/12/15 01:26:16;;;;;;;6.63;5.75;;;9.00;99.90;9.30;98124.00;;;;338487;28;91150;-91
2022/12/15 01:26:28;;;;;;;7.22;6.20;;;9.00;99.90;9.20;98132.00;;;;338967;28;84484;-91
2022/12/15 01:26:39;;;;;;;7.15;6.35;;;9.00;99.90;9.20;98122.00;;;;337255;28;90986;-90
2022/12/15 01:26:51;;;;;;;7.38;6.70;;;9.00;99.90;9.20;98135.00;;;;337465;28;84679;-91
2022/12/15 01:27:03;;;;;;;7.22;6.60;;;9.00;99.90;9.30;98135.00;;;;338304;28;91436;-91
2022/12/15 01:27:15;;;;;;;7.25;6.55;;;8.90;99.90;9.40;98135.00;;;;338953;28;83352;-91
2022/12/15 01:27:27;;;;;;;7.15;6.45;;;9.00;99.90;9.30;98139.00;;;;338503;28;91718;-92
2022/12/15 01:27:39;;;;;;;7.20;6.45;;;9.00;99.90;9.40;98134.00;;;;336242;28;83993;-91
2022/12/15 01:27:51;;;;;;;7.10;6.40;;;9.00;99.90;9.30;98130.00;;;;341079;28;92109;-91
2022/12/15 01:28:03;;;;;;;6.88;5.90;;;9.00;99.90;9.40;98141.00;;;;340070;28;83587;-91
2022/12/15 01:28:15;;;;;;;8.02;5.95;;;9.00;99.90;9.20;98138.00;;;;338524;28;90569;-91
2022/12/15 01:28:26;;;;;;;8.02;6.10;;;9.00;99.90;9.20;98139.00;;;;339060;28;82533;-91
2022/12/15 01:28:38;;;;;;;7.28;6.10;;;9.00;99.90;9.20;98133.00;;;;339949;28;89468;-91
2022/12/15 01:28:50;;;;;;;6.65;6.05;;;9.00;99.90;9.30;98141.00;;;;337290;28;83610;-91
2022/12/15 01:29:02;;;;;;;7.22;6.53;;;9.00;99.90;9.40;98131.00;;;;337198;28;91067;-91
2022/12/15 01:29:14;;;;;;;7.03;6.32;;;9.00;99.90;9.50;98141.00;;;;336194;28;84093;-91
2022/12/15 01:29:26;;;;;;;6.45;5.50;;;9.00;99.90;9.40;98141.00;;;;341162;28;89567;-90
2022/12/15 01:29:37;;;;;;;6.18;5.57;;;9.00;99.90;9.40;98133.00;;;;340331;28;83381;-91
2022/12/15 01:29:49;;;;;;;6.38;5.75;;;9.00;99.90;9.30;98142.00;;;;337279;28;90545;-91
2022/12/15 01:30:02;;;;;;;6.53;5.93;;;9.00;99.90;9.40;98139.00;;;;336228;28;84267;-91
2022/12/15 01:30:17;;;;;;;6.25;5.68;;;9.00;99.90;9.30;98133.00;;;;339959;28;89926;-91
2022/12/15 01:30:29;;;;;;;6.20;5.60;;;9.00;99.90;9.50;98141.00;;;;337753;28;83235;-91
2022/12/15 01:30:41;;;;;;;6.28;5.68;;;9.00;99.90;9.50;98144.00;;;;339673;28;92494;-91
2022/12/15 01:30:53;;;;;;;5.97;5.45;;;9.10;99.90;9.50;98138.00;;;;338984;28;83397;-91
2022/12/15 01:31:10;;;;;;;6.38;5.78;;;9.00;99.90;9.50;98138.00;;;;338558;28;89875;-91
2022/12/15 01:31:22;;;;;;;6.90;6.30;;;9.10;99.90;9.40;98136.00;;;;340260;28;83391;-90
2022/12/15 01:31:34;;;;;;;7.10;6.40;;;9.10;99.90;9.40;98139.00;;;;338630;28;89258;-91
2022/12/15 01:31:46;;;;;;;6.75;6.13;;;9.10;99.90;9.40;98141.00;;;;340236;28;82729;-91
2022/12/15 01:32:01;;;;;;;6.53;5.78;;;9.10;99.90;9.30;98144.00;;;;336961;28;91862;-91
2022/12/15 01:32:13;;;;;;;6.78;5.90;;;9.10;99.90;9.30;98145.00;;;;340396;28;83865;-91
2022/12/15 01:32:25;;;;;;;6.13;5.53;;;9.10;99.90;9.40;98144.00;;;;338597;28;89958;-91
2022/12/15 01:32:37;;;;;;;6.38;5.55;;;9.00;99.90;9.30;98140.00;;;;338995;28;83432;-90
2022/12/15 01:32:56;;;;;;;6.70;6.00;;;9.00;99.90;9.30;98137.00;;;;339786;28;89187;-91
2022/12/15 01:33:08;;;;;;;6.63;6.03;;;9.00;99.90;9.40;98136.00;;;;340029;28;83530;-91
2022/12/15 01:33:20;;;;;;;6.38;5.80;;;9.00;99.90;9.50;98139.00;;;;335897;28;89213;-91
2022/12/15 01:33:32;;;;;;;7.10;5.88;;;9.00;99.90;9.50;98144.00;;;;342843;28;82624;-91
2022/12/15 01:33:44;;;;;;;6.90;5.63;;;9.00;99.90;9.50;98146.00;;;;341158;28;90711;-91
2022/12/15 01:33:56;;;;;;;6.10;5.40;;;9.10;99.90;9.50;98142.00;;;;337419;28;83302;-91
2022/12/15 01:34:08;;;;;;;6.15;5.50;;;9.10;99.90;9.50;98139.00;;;;338416;28;90794;-91
2022/12/15 01:34:21;;;;;;;6.47;5.70;;;9.10;99.90;9.50;98130.00;;;;339081;28;82460;-91
2022/12/15 01:34:33;;;;;;;6.00;5.50;;;9.10;99.90;9.50;98141.00;;;;338442;28;91073;-91
2022/12/15 01:34:45;;;;;;;5.80;5.30;;;9.10;99.90;9.50;98147.00;;;;340171;28;84538;-91
2022/12/15 01:34:57;;;;;;;5.97;5.38;;;9.10;99.90;9.50;98141.00;;;;338579;28;89213;-91
2022/12/15 01:35:09;;;;;;;6.13;5.53;;;9.10;99.90;9.50;98134.00;;;;339105;28;83221;-91
2022/12/15 01:35:21;;;;;;;6.38;5.78;;;9.10;99.90;9.50;98134.00;;;;337035;28;92053;-90
2022/12/15 01:35:33;;;;;;;6.25;5.65;;;9.10;99.90;9.50;98139.00;;;;338837;28;84555;-91
2022/12/15 01:35:56;;;;;;;6.30;5.70;;;9.10;99.90;9.50;98136.00;;;;338439;28;89622;-91
2022/12/15 01:36:09;;;;;;;6.47;5.88;;;9.10;99.90;9.60;98142.00;;;;338900;28;83652;-91
2022/12/15 01:36:21;;;;;;;6.72;6.13;;;9.20;99.90;9.60;98136.00;;;;338688;28;89882;-91
2022/12/15 01:36:32;;;;;;;6.57;5.93;;;9.20;99.90;9.60;98133.00;;;;339193;28;82395;-91
2022/12/15 01:36:45;;;;;;;6.45;5.85;;;9.20;99.90;9.60;98136.00;;;;338614;28;88917;-91
2022/12/15 01:36:57;;;;;;;6.72;6.03;;;9.20;99.90;9.60;98135.00;;;;339247;28;82194;-91
2022/12/15 01:37:09;;;;;;;6.82;5.97;;;9.20;99.90;9.50;98138.00;;;;338534;28;89597;-91
2022/12/15 01:37:20;;;;;;;7.38;5.80;;;9.20;99.90;9.50;98145.00;;;;334963;29;83518;-91
2022/12/15 01:37:33;;;;;;;6.22;5.43;;;9.20;99.90;9.50;98139.00;;;;339824;28;90187;-91
2022/12/15 01:37:45;;;;;;;6.22;5.65;;;9.20;99.90;9.50;98141.00;;;;340184;28;82957;-91
2022/12/15 01:38:00;;;;;;;6.43;5.85;;;9.20;99.90;9.50;98139.00;;;;337174;28;91845;-91
2022/12/15 01:38:12;;;;;;;7.97;6.15;;;9.20;99.90;9.50;98140.00;;;;340479;28;83554;-90
2022/12/15 01:38:25;;;;;;;8.40;6.47;;;9.20;99.90;9.50;98132.00;;;;338556;28;93338;-91
2022/12/15 01:38:37;;;;;;;8.40;6.75;;;9.20;99.90;9.40;98134.00;;;;341866;28;82427;-91
2022/12/15 01:38:49;;;;;;;7.40;6.65;;;9.20;99.90;9.50;98142.00;;;;340028;28;90089;-90
2022/12/15 01:39:05;;;;;;;7.25;6.13;;;9.20;99.90;9.40;98138.00;;;;341932;28;83155;-89
2022/12/15 01:39:17;;;;;;;6.50;5.82;;;9.20;99.90;9.40;98134.00;;;;336356;29;89009;-91
2022/12/15 01:40:43;;;;;;;6.38;5.82;;;9.20;99.90;9.40;98140.00;;;;340612;28;83422;-89
2022/12/15 01:40:48;;;;;;;6.65;5.95;;;9.10;99.90;9.60;98142.00;;;;338054;28;82504;-89
2022/12/15 01:41:02;;;;;;;6.80;6.10;;;9.10;99.90;9.60;98144.00;;;;341710;28;89940;-89
2022/12/15 01:41:14;;;;;;;6.88;6.15;;;9.20;99.90;9.60;98137.00;;;;339674;28;82172;-89
2022/12/15 01:41:26;;;;;;;6.70;6.00;;;9.20;99.90;9.50;98138.00;;;;338996;28;89595;-89
2022/12/15 01:41:38;;;;;;;6.32;5.72;;;9.20;99.90;9.50;98143.00;;;;339242;28;82728;-91
2022/12/15 01:41:50;;;;;;;6.40;5.80;;;9.20;99.90;9.60;98135.00;;;;337893;28;88619;-89
2022/12/15 01:42:02;;;;;;;6.55;5.95;;;9.20;99.90;9.70;98146.00;;;;340731;28;82505;-90
2022/12/15 01:42:14;;;;;;;6.25;5.65;;;9.20;99.90;9.80;98145.00;;;;342776;28;90653;-88
2022/12/15 01:42:26;;;;;;;6.32;5.72;;;9.20;99.90;9.70;98142.00;;;;339347;28;84331;-90
2022/12/15 01:42:37;;;;;;;6.18;5.60;;;9.20;99.90;9.70;98144.00;;;;338909;28;87791;-90
2022/12/15 01:42:50;;;;;;;6.32;5.72;;;9.20;99.90;9.80;98144.00;;;;337669;28;83461;-91
2022/12/15 01:43:02;;;;;;;6.75;6.05;;;9.20;99.90;9.70;98144.00;;;;334660;28;88945;-91
2022/12/15 01:43:17;;;;;;;6.93;6.22;;;9.20;99.90;9.80;98137.00;;;;339916;28;83962;-91
2022/12/15 01:43:33;;;;;;;6.25;5.65;;;9.20;99.90;9.60;98142.00;;;;337011;28;91370;-91
2022/12/15 01:43:46;;;;;;;6.22;5.63;;;9.30;99.90;9.70;98136.00;;;;336398;28;82464;-91
2022/12/15 01:44:35;;;;;;;7.38;6.07;;;9.30;99.90;9.60;98142.00;;;;339830;28;92211;-91
2022/12/15 01:44:51;;;;;;;6.72;6.03;;;9.20;99.90;9.70;98143.00;;;;334753;29;83470;-92
2022/12/15 01:45:40;;;;;;;7.22;6.20;;;9.30;99.90;9.60;98144.00;;;;330848;29;88568;-91
2022/12/15 01:46:04;;;;;;;6.68;5.93;;;9.30;99.90;9.50;98142.00;;;;334479;28;82635;-91
2022/12/15 01:46:23;;;;;;;6.55;5.85;;;9.30;99.90;9.50;98141.00;;;;334465;29;90169;-91
2022/12/15 01:46:35;;;;;;;6.32;5.72;;;9.20;99.90;9.50;98150.00;;;;336141;28;83764;-91
2022/12/15 01:46:51;;;;;;;6.50;5.90;;;9.20;99.90;9.40;98143.00;;;;334329;29;92312;-90
2022/12/15 01:47:04;;;;;;;6.50;5.90;;;9.20;99.90;9.50;98135.00;;;;336324;28;82575;-91
2022/12/15 01:47:16;;;;;;;6.30;5.70;;;9.20;99.90;9.50;98141.00;;;;337128;28;90834;-91
2022/12/15 01:47:28;;;;;;;6.60;6.00;;;9.20;99.90;9.40;98130.00;;;;333655;29;83591;-91
2022/12/15 01:47:40;;;;;;;6.90;6.22;;;9.20;99.90;9.50;98130.00;;;;334552;29;89956;-91
2022/12/15 01:48:01;;;;;;;6.75;6.15;;;9.20;99.90;9.60;98133.00;;;;336245;28;83344;-91
2022/12/15 01:48:32;;;;;;;6.80;6.10;;;9.20;99.90;9.60;98139.00;;;;337029;28;88699;-91
2022/12/15 01:49:14;;;;;;;6.85;5.68;;;9.20;99.90;9.60;98141.00;;;;333731;29;82375;-90
2022/12/15 01:49:27;;;;;;;6.63;6.00;;;9.20;99.90;9.50;98137.00;;;;331784;29;89920;-91
2022/12/15 01:49:39;;;;;;;6.80;6.13;;;9.30;99.90;9.50;98133.00;;;;334977;29;82255;-90
2022/12/15 01:49:51;;;;;;;6.72;6.03;;;9.20;99.90;9.40;98133.00;;;;334662;29;91611;-91
2022/12/15 01:50:03;;;;;;;6.55;5.88;;;9.20;99.90;9.40;98138.00;;;;337211;28;83524;-90
2022/12/15 01:50:15;;;;;;;5.80;5.30;;;9.20;99.90;9.50;98132.00;;;;335733;28;90831;-91
2022/12/15 01:50:27;;;;;;;6.18;5.57;;;9.20;99.90;9.40;98134.00;;;;334891;29;84571;-91
2022/12/15 01:50:48;;;;;;;6.70;6.00;;;9.20;99.90;9.60;98129.00;;;;337094;28;92307;-91
2022/12/15 01:51:09;;;;;;;6.72;6.03;;;9.20;99.90;9.50;98130.00;;;;336196;28;84592;-91
2022/12/15 01:51:36;;;;;;;7.45;6.10;;;9.20;99.90;9.60;98127.00;;;;335898;28;92735;-91
2022/12/15 01:51:51;;;;;;;7.00;6.35;;;9.20;99.90;9.50;98144.00;;;;338869;28;83789;-91
2022/12/15 01:52:04;;;;;;;7.68;6.40;;;9.20;99.90;9.60;98139.00;;;;337180;28;90863;-90
2022/12/15 01:52:17;;;;;;;7.68;6.15;;;9.20;99.90;9.70;98134.00;;;;337498;28;83825;-91
2022/12/15 01:52:29;;;;;;;7.50;6.15;;;9.20;99.90;9.50;98129.00;;;;337188;28;87874;-92
2022/12/15 01:52:41;;;;;;;6.78;6.18;;;9.20;99.90;9.60;98133.00;;;;338718;28;83197;-91
2022/12/15 01:52:53;;;;;;;6.88;6.18;;;9.30;99.90;9.60;98133.00;;;;337166;28;90532;-90
2022/12/15 01:53:05;;;;;;;6.65;6.05;;;9.20;99.90;9.70;98135.00;;;;337416;28;83682;-91
2022/12/15 01:53:17;;;;;;;6.72;6.10;;;9.20;99.90;9.70;98135.00;;;;335808;28;91057;-92
2022/12/15 01:53:32;;;;;;;7.10;6.40;;;9.20;99.90;9.80;98133.00;;;;338937;28;84827;-91
2022/12/15 01:54:09;;;;;;;7.18;6.47;;;9.30;99.90;9.50;98139.00;;;;337013;28;91512;-91
2022/12/15 01:54:27;;;;;;;6.95;6.25;;;9.30;99.90;9.50;98136.00;;;;337314;28;83640;-91
2022/12/15 01:54:50;;;;;;;7.50;6.80;;;9.20;99.90;9.60;98136.00;;;;335646;28;91149;-91
2022/12/15 01:55:04;;;;;;;7.40;6.70;;;9.20;99.90;9.60;98143.00;;;;337648;28;83462;-91
2022/12/15 01:55:16;;;;;;;7.05;6.35;;;9.20;99.90;9.60;98139.00;;;;334335;29;91786;-91
2022/12/15 01:55:28;;;;;;;7.22;6.53;;;9.20;99.90;9.50;98143.00;;;;338674;28;83942;-91
2022/12/15 01:55:41;;;;;;;6.90;6.28;;;9.20;99.90;9.50;98142.00;;;;335601;28;90684;-91
2022/12/15 01:55:52;;;;;;;6.53;5.90;;;9.20;99.90;9.50;98144.00;;;;337719;28;83443;-92
2022/12/15 01:56:05;;;;;;;6.68;5.97;;;9.20;99.90;9.50;98141.00;;;;333247;29;92193;-91
2022/12/15 01:56:17;;;;;;;6.93;6.18;;;9.20;99.90;9.50;98143.00;;;;338614;28;83569;-91
2022/12/15 01:56:36;;;;;;;7.43;6.72;;;9.20;99.90;9.60;98140.00;;;;334399;29;91154;-91
2022/12/15 01:56:54;;;;;;;7.75;6.95;;;9.20;99.90;9.50;98143.00;;;;337457;28;83570;-91
2022/12/15 01:57:12;;;;;;;7.80;7.00;;;9.20;99.90;9.50;98134.00;;;;335797;28;91026;-91
2022/12/15 01:57:28;;;;;;;6.70;6.10;;;9.20;99.90;9.50;98136.00;;;;336261;28;83410;-90
2022/12/15 01:57:40;;;;;;;6.85;6.25;;;9.30;99.90;9.40;98138.00;;;;334667;29;89633;-91
2022/12/15 01:57:54;;;;;;;6.72;6.13;;;9.20;99.90;9.40;98133.00;;;;336310;28;82409;-91
2022/12/15 01:58:07;;;;;;;6.55;5.95;;;9.20;99.90;9.50;98139.00;;;;338553;28;89989;-91
2022/12/15 01:58:18;;;;;;;6.57;5.97;;;9.20;99.90;9.40;98146.00;;;;338809;28;83446;-91
2022/12/15 01:58:30;;;;;;;6.18;5.57;;;9.20;99.90;9.30;98139.00;;;;335891;28;90605;-91
2022/12/15 01:58:43;;;;;;;6.35;5.75;;;9.20;99.90;9.30;98138.00;;;;337529;28;83500;-89
2022/12/15 01:58:55;;;;;;;6.45;5.85;;;9.20;99.90;9.40;98133.00;;;;338192;28;90547;-91
2022/12/15 01:59:10;;;;;;;6.45;5.85;;;9.20;99.90;9.30;98139.00;;;;336314;28;82549;-91
2022/12/15 01:59:35;;;;;;;6.63;5.90;;;9.20;99.90;9.60;98132.00;;;;334447;29;89771;-90
2022/12/15 01:59:50;;;;;;;6.80;6.10;;;9.20;99.90;9.70;98129.00;;;;333788;29;82409;-91
2022/12/15 02:00:05;;;;;;;6.63;5.90;;;9.20;99.90;9.40;98142.00;;;;337276;28;89523;-90
2022/12/15 02:00:17;;;;;;;6.90;6.13;;;9.20;99.90;9.40;98128.00;;;;337655;28;83347;-91
2022/12/15 02:00:29;;;;;;;6.80;6.18;;;9.20;99.90;9.30;98132.00;;;;337133;28;90705;-91
2022/12/15 02:00:41;;;;;;;6.72;6.10;;;9.20;99.90;9.30;98127.00;;;;338675;28;84384;-91
2022/12/15 02:00:53;;;;;;;6.70;6.10;;;9.10;99.90;9.40;98135.00;;;;338246;28;89663;-91
2022/12/15 02:01:05;;;;;;;6.72;6.07;;;9.10;99.90;9.50;98141.00;;;;336182;28;82421;-91
2022/12/15 02:01:17;;;;;;;6.40;5.78;;;9.10;99.90;9.50;98121.00;;;;335936;28;90314;-91
2022/12/15 02:01:29;;;;;;;6.97;5.72;;;9.20;99.90;9.50;98137.00;;;;337545;28;83367;-91
2022/12/15 02:01:41;;;;;;;6.97;5.97;;;9.20;99.90;9.40;98132.00;;;;338579;28;88966;-91
2022/12/15 02:01:53;;;;;;;6.82;6.20;;;9.20;99.90;9.30;98128.00;;;;337453;28;83528;-91
2022/12/15 02:02:05;;;;;;;6.25;5.65;;;9.10;99.90;9.30;98133.00;;;;339856;28;90103;-90
2022/12/15 02:02:20;;;;;;;5.65;5.15;;;9.10;99.90;9.30;98139.00;;;;338784;28;83303;-91
2022/12/15 02:02:33;;;;;;;6.53;5.93;;;9.10;99.90;9.20;98134.00;;;;339860;28;90896;-91
2022/12/15 02:02:51;;;;;;;7.55;6.57;;;9.10;99.90;9.20;98137.00;;;;339951;28;83489;-91
2022/12/15 02:03:03;;;;;;;7.63;5.97;;;9.10;99.90;9.30;98133.00;;;;335983;28;88602;-91
2022/12/15 02:03:15;;;;;;;7.30;5.93;;;9.10;99.90;9.40;98135.00;;;;338922;28;82502;-91
2022/12/15 02:03:27;;;;;;;6.18;5.57;;;9.10;99.90;9.50;98139.00;;;;334548;28;90131;-90
2022/12/15 02:03:40;;;;;;;6.57;5.93;;;9.10;99.90;9.50;98136.00;;;;338701;28;84680;-91
2022/12/15 02:03:52;;;;;;;7.10;6.38;;;9.10;99.90;9.50;98135.00;;;;335839;28;90643;-90
2022/12/15 02:04:04;;;;;;;6.95;6.25;;;9.10;99.90;9.50;98132.00;;;;337428;28;82756;-90
2022/12/15 02:04:19;;;;;;;6.60;5.95;;;9.10;99.90;9.40;98132.00;;;;338627;28;88292;-91
2022/12/15 02:04:31;;;;;;;7.32;6.07;;;9.10;99.90;9.40;98133.00;;;;335876;28;83390;-91
2022/12/15 02:04:44;;;;;;;7.70;6.28;;;9.10;99.90;9.40;98134.00;;;;335678;28;90712;-90
2022/12/15 02:04:57;;;;;;;7.50;6.75;;;9.10;99.90;9.20;98124.00;;;;334984;29;83740;-91
2022/12/15 02:05:09;;;;;;;7.63;6.85;;;9.10;99.90;9.30;98132.00;;;;334667;29;89817;-91
2022/12/15 02:05:20;;;;;;;7.07;6.38;;;9.10;99.90;9.30;98126.00;;;;333694;29;83469;-91
2022/12/15 02:05:32;;;;;;;7.13;6.40;;;9.10;99.90;9.30;98134.00;;;;335894;28;90122;-91
2022/12/15 02:05:44;;;;;;;7.15;6.40;;;9.10;99.90;9.20;98125.00;;;;336151;28;84336;-91
2022/12/15 02:05:56;;;;;;;6.70;6.00;;;9.10;99.90;9.20;98136.00;;;;333299;29;92241;-91
2022/12/15 02:06:08;;;;;;;7.18;6.05;;;9.10;99.90;9.30;98134.00;;;;338850;28;83922;-90
2022/12/15 02:06:21;;;;;;;8.35;6.68;;;9.10;99.90;9.20;98133.00;;;;334624;29;89464;-91
2022/12/15 02:06:33;;;;;;;8.07;6.50;;;9.10;99.90;9.30;98135.00;;;;337521;28;83493;-91
2022/12/15 02:06:45;;;;;;;6.55;5.85;;;9.10;99.90;9.30;98136.00;;;;335797;28;92961;-91
2022/12/15 02:06:56;;;;;;;6.18;5.57;;;9.10;99.90;9.30;98130.00;;;;339982;28;83551;-91
2022/12/15 02:07:13;;;;;;;8.20;5.63;;;9.10;99.90;9.30;98135.00;;;;335755;28;90164;-91
2022/12/15 02:07:26;;;;;;;9.23;5.85;;;9.10;99.90;9.30;98126.00;;;;338850;28;83377;-91
2022/12/15 02:07:37;;;;;;;7.22;6.20;;;9.10;99.90;9.40;98132.00;;;;337019;28;88420;-91
2022/12/15 02:07:49;;;;;;;7.80;6.35;;;9.10;99.90;9.30;98134.00;;;;334769;29;83662;-91
2022/12/15 02:08:01;;;;;;;8.90;6.35;;;9.10;99.90;9.20;98128.00;;;;334452;29;89867;-91
2022/12/15 02:08:13;;;;;;;8.27;6.38;;;9.10;99.90;9.30;98130.00;;;;337388;28;83262;-91
2022/12/15 02:08:25;;;;;;;7.82;6.50;;;9.00;99.90;9.40;98124.00;;;;335899;28;89869;-91
2022/12/15 02:08:37;;;;;;;7.50;6.70;;;9.10;99.90;9.50;98129.00;;;;336331;28;83368;-91
2022/12/15 02:08:50;;;;;;;7.53;6.75;;;9.10;99.90;9.40;98127.00;;;;336918;28;91581;-91
2022/12/15 02:09:02;;;;;;;7.30;6.60;;;9.10;99.90;9.40;98123.00;;;;340334;28;82488;-91
2022/12/15 02:09:14;;;;;;;6.80;6.10;;;9.10;99.90;9.40;98134.00;;;;338366;28;91669;-91
2022/12/15 02:09:26;;;;;;;6.47;5.88;;;9.10;99.90;9.40;98135.00;;;;334741;28;83762;-91
2022/12/15 02:09:38;;;;;;;6.78;6.00;;;9.10;99.90;9.40;98129.00;;;;334099;29;89956;-91
2022/12/15 02:09:51;;;;;;;7.65;6.80;;;9.10;99.90;9.40;98134.00;;;;337434;28;83351;-91
2022/12/15 02:10:06;;;;;;;7.50;6.70;;;9.10;99.90;9.30;98125.00;;;;334372;29;91763;-91
2022/12/15 02:10:21;;;;;;;7.28;6.57;;;9.10;99.90;9.30;98130.00;;;;334985;29;83368;-91
2022/12/15 02:11:10;;;;;;;7.28;6.57;;;9.10;99.90;9.40;98134.00;;;;335946;28;89785;-91
2022/12/15 02:11:56;;;;;;;7.00;6.30;;;9.10;99.90;9.40;98135.00;;;;336192;28;83469;-91
2022/12/15 02:12:28;;;;;;;6.95;6.25;;;9.10;99.90;9.50;98131.00;;;;334519;29;90538;-91
2022/12/15 02:13:02;;;;;;;6.97;6.30;;;9.10;99.90;9.50;98136.00;;;;337274;28;82605;-91
2022/12/15 02:13:26;;;;;;;7.45;6.50;;;9.20;99.90;9.50;98136.00;;;;339869;28;88723;-91
2022/12/15 02:13:59;;;;;;;7.50;6.70;;;9.20;99.90;9.50;98133.00;;;;338781;28;83376;-91
2022/12/15 02:14:17;;;;;;;6.63;6.03;;;9.20;99.90;9.60;98133.00;;;;335557;28;92076;-91
2022/12/15 02:15:09;;;;;;;6.90;6.07;;;9.20;99.90;9.70;98132.00;;;;339008;28;82674;-91
2022/12/15 02:15:40;;;;;;;7.13;6.43;;;9.20;99.90;9.80;98137.00;;;;337026;28;89559;-91
2022/12/15 02:16:00;;;;;;;6.10;5.50;;;9.30;99.90;9.80;98139.00;;;;339751;28;82653;-92
2022/12/15 02:16:59;;;;;;;7.00;5.95;;;9.30;99.90;9.60;98137.00;;;;338177;28;92427;-91
2022/12/15 02:17:44;;;;;;;8.15;6.13;;;9.30;99.90;9.40;98137.00;;;;337548;28;82546;-90
2022/12/15 02:18:09;;;;;;;8.32;6.97;;;9.30;99.90;9.40;98132.00;;;;335923;29;89248;-90
2022/12/15 02:18:24;;;;;;;7.95;6.90;;;9.30;99.90;9.50;98136.00;;;;338765;28;83395;-90
2022/12/15 02:19:04;;;;;;;8.50;6.88;;;9.20;99.90;9.40;98138.00;;;;336344;29;87968;-91
2022/12/15 02:19:52;;;;;;;7.03;6.30;;;9.30;99.90;9.40;98129.00;;;;337629;28;82375;-90
2022/12/15 02:20:31;;;;;;;7.05;6.45;;;9.30;99.90;9.30;98130.00;;;;337228;28;87085;-89